Latest Weather Observations for Maryborough

IDQ60801

Issued at 3:02 am EST Saturday 28 March 2015 (issued every 30 minutes, with the page automatically refreshed every 10 minutes)

About weather observations | Map of weather stations | Latest weather observations for QLD | Other Formats
Station Details ID: 040126 Name: MARYBOROUGH Lat: -25.52 Lon: 152.72 Height: 10.28 m
Data from the previous 72 hours. | See also: Recent months at Maryborough
Date/Time
EST
Temp
°C
App
Temp
°C
Dew
Point
Rel
Hum
%
Delta-T
°C
Wind Press
QNH
hPa
Press
MSL
hPa
Rain
since 9 am
mm
Dir
 
Spd
km/h
Gust
km/h
Spd
kts
Gust
kts
28/03:00am 21.5 25.3 20.1 92 0.9 CALM 0 0 0 0 1016.8 1016.7 1.2
28/02:30am 22.2 25.0 20.8 92 0.9 SSW 7 9 4 5 1017.0 - 1.2
28/02:00am 22.3 25.1 20.8 91 1.0 SSW 7 9 4 5 1017.2 - 1.2
28/01:30am 22.4 25.8 20.9 91 1.0 WSW 4 9 2 5 1017.3 - 1.2
28/01:00am 22.8 27.1 21.1 90 1.1 CALM 0 0 0 0 1017.4 - 1.2
28/12:30am 23.2 26.3 21.5 90 1.1 WSW 7 9 4 5 1017.7 - 1.2
28/12:00am 23.0 26.6 21.3 90 1.1 S 4 6 2 3 1017.8 1017.7 1.2
 
Date/Time
EST
Temp
°C
App
Temp
°C
Dew
Point
Rel
Hum
%
Delta-T
°C
Wind Press
QNH
hPa
Press
MSL
hPa
Rain
since 9 am
mm
Dir
 
Spd
km/h
Gust
km/h
Spd
kts
Gust
kts
27/11:30pm 23.3 27.1 21.6 90 1.1 S 4 7 2 4 1017.9 - 1.2
27/11:00pm 23.4 26.5 21.5 89 1.3 S 7 9 4 5 1018.1 - 1.2
27/10:30pm 23.3 26.2 21.0 87 1.5 S 7 9 4 5 1018.2 - 1.2
27/10:00pm 23.8 26.9 21.1 85 1.8 S 6 7 3 4 1018.1 - 1.2
27/09:30pm 24.2 27.0 21.5 85 1.8 SE 9 13 5 7 1018.5 - 1.2
27/09:00pm 24.6 27.0 21.5 83 2.0 SE 11 15 6 8 1018.6 1018.5 1.2
27/08:30pm 24.9 27.6 22.2 85 1.8 S 11 19 6 10 1018.3 - 1.2
27/08:00pm 24.3 27.4 21.4 84 1.9 SSE 7 9 4 5 1018.0 - 1.2
27/07:30pm 24.5 27.3 21.6 84 1.9 E 9 11 5 6 1017.4 - 1.2
27/07:00pm 24.7 27.9 21.6 83 2.1 E 7 7 4 4 1016.8 - 1.2
27/06:30pm 25.5 28.7 21.6 79 2.6 NE 7 7 4 4 1016.3 - 1.2
27/06:00pm 25.1 29.5 22.8 87 1.6 N 4 9 2 5 1015.7 1015.6 1.2
27/05:30pm 25.4 29.5 22.9 86 1.7 NNW 6 7 3 4 1015.6 - 1.2
27/05:00pm 25.1 30.2 22.6 86 1.7 CALM 0 2 0 1 1015.6 - 1.2
27/04:30pm 24.7 28.1 22.0 85 1.8 SE 7 11 4 6 1015.4 - 1.2
27/04:00pm 24.5 25.1 21.4 83 2.0 SW 20 28 11 15 1015.3 - 0.4
27/03:54pm 25.1 24.9 21.2 79 2.6 SW 24 39 13 21 1015.4 - 0.0
27/03:30pm 30.2 31.3 18.9 50 7.3 ENE 11 15 6 8 1014.7 - 0.0
27/03:00pm 30.7 32.6 19.7 52 7.2 N 9 17 5 9 1014.7 1014.6 0.0
27/02:30pm 32.3 34.5 21.2 52 7.5 N 11 19 6 10 1014.7 - 0.0
27/02:00pm 31.5 33.7 21.1 54 7.0 ENE 11 15 6 8 1015.1 - 0.0
27/01:30pm 30.6 32.2 19.9 52 7.0 NE 11 19 6 10 1015.5 - 0.0
27/01:00pm 30.6 32.5 20.5 54 6.7 NE 11 19 6 10 1016.0 - 0.0
27/12:30pm 31.5 33.6 20.1 50 7.5 NNE 9 17 5 9 1016.4 - 0.0
27/12:00pm 31.3 32.1 19.0 48 8.0 N 13 19 7 10 1017.1 1017.0 0.0
27/11:30am 32.0 33.5 20.6 51 7.6 N 13 20 7 11 1017.7 - 0.0
27/11:00am 31.2 33.2 20.8 54 6.9 NNW 11 17 6 9 1018.2 - 0.0
27/10:30am 29.2 30.1 20.1 58 6.0 NW 15 20 8 11 1018.7 - 0.0
27/10:00am 28.5 30.1 20.0 60 5.6 N 11 15 6 8 1019.0 - 0.0
27/09:30am 29.3 31.2 21.3 62 5.3 N 13 17 7 9 1019.0 - 0.0
27/09:00am 28.4 30.1 21.7 67 4.5 NNW 15 20 8 11 1019.1 1019.0 0.0
27/08:30am 27.2 30.8 22.4 75 3.2 NW 7 11 4 6 1019.3 - 0.0
27/08:00am 25.4 29.0 22.3 83 2.1 WSW 7 9 4 5 1019.2 - 0.0
27/07:30am 23.6 28.8 22.8 95 0.5 CALM 0 7 0 4 1018.9 - 0.0
27/07:00am 22.3 26.9 21.8 97 0.3 CALM 0 0 0 0 1018.6 - 0.0
27/06:30am 21.3 25.4 20.8 97 0.3 CALM 0 0 0 0 1018.3 - 0.0
27/06:19am 20.6 23.5 19.9 96 0.4 N 4 7 2 4 1018.1 - 0.0
27/06:03am 20.2 22.5 19.4 95 0.5 N 6 7 3 4 1017.8 - 0.0
27/06:00am 20.1 22.3 19.3 95 0.5 N 6 7 3 4 1017.8 1017.7 0.0
27/05:55am 20.2 22.8 19.2 94 0.6 N 4 6 2 3 1017.8 - 0.0
27/05:30am 20.6 24.2 19.8 95 0.5 CALM 0 0 0 0 1017.6 - 0.0
27/05:12am 20.7 24.4 19.9 95 0.5 CALM 0 0 0 0 1017.5 - 0.0
27/05:00am 20.9 24.7 20.1 95 0.5 CALM 0 0 0 0 1017.5 - 0.0
27/04:30am 20.9 23.5 20.1 95 0.5 N 6 6 3 3 1017.3 - 0.0
27/04:02am 20.7 24.3 19.7 94 0.6 CALM 0 0 0 0 1017.1 - 0.0
27/04:00am 20.7 24.3 19.7 94 0.6 CALM 0 0 0 0 1017.1 - 0.0
27/03:30am 21.0 24.7 20.0 94 0.6 CALM 0 0 0 0 1016.9 - 0.0
27/03:00am 21.0 24.7 20.0 94 0.6 CALM 0 0 0 0 1016.9 1016.8 0.0
27/02:33am 21.0 24.6 19.8 93 0.8 CALM 0 0 0 0 1016.9 - 0.0
27/02:30am 20.9 24.5 19.7 93 0.8 CALM 0 0 0 0 1016.9 - 0.0
27/02:00am 21.3 24.1 20.5 95 0.5 N 6 7 3 4 1017.2 - 0.0
27/01:32am 21.4 25.3 20.4 94 0.6 CALM 0 0 0 0 1017.5 - 0.0
27/01:30am 21.3 25.1 20.1 93 0.8 CALM 0 0 0 0 1017.5 - 0.0
27/01:00am 21.3 25.1 20.1 93 0.8 CALM 0 0 0 0 1017.7 - 0.0
27/12:47am 21.7 25.4 20.7 94 0.6 N 2 6 1 3 1017.7 - 0.0
27/12:30am 21.8 24.8 20.8 94 0.6 N 6 7 3 4 1017.8 - 0.0
27/12:00am 22.0 26.2 21.0 94 0.7 CALM 0 0 0 0 1018.1 1018.0 0.0
 
Date/Time
EST
Temp
°C
App
Temp
°C
Dew
Point
Rel
Hum
%
Delta-T
°C
Wind Press
QNH
hPa
Press
MSL
hPa
Rain
since 9 am
mm
Dir
 
Spd
km/h
Gust
km/h
Spd
kts
Gust
kts
26/11:30pm 21.8 24.8 20.8 94 0.6 N 6 6 3 3 1018.2 - 0.0
26/11:00pm 21.6 25.5 20.4 93 0.8 CALM 0 0 0 0 1018.1 - 0.0
26/10:30pm 21.8 25.8 20.6 93 0.8 CALM 0 0 0 0 1018.3 - 0.0
26/10:00pm 22.0 25.6 20.5 91 1.0 N 2 6 1 3 1018.5 - 0.0
26/09:30pm 22.0 25.9 20.3 90 1.1 CALM 0 0 0 0 1018.5 - 0.0
26/09:00pm 22.7 26.7 20.6 88 1.4 CALM 0 0 0 0 1018.5 1018.4 0.0
26/08:30pm 23.0 26.8 20.1 84 1.9 CALM 0 0 0 0 1018.1 - 0.0
26/08:00pm 23.9 26.8 21.0 84 1.9 N 7 9 4 5 1017.5 - 0.0
26/07:30pm 24.1 26.8 20.6 81 2.3 N 7 9 4 5 1017.2 - 0.0
26/07:00pm 24.8 27.1 20.7 78 2.7 N 9 13 5 7 1016.9 - 0.0
26/06:30pm 25.4 27.6 20.4 74 3.3 NNE 9 11 5 6 1016.6 - 0.0
26/06:00pm 26.6 28.2 20.0 67 4.3 NNE 11 15 6 8 1016.1 1016.0 0.0
26/05:30pm 28.2 29.5 19.4 59 5.7 NNE 11 17 6 9 1015.8 - 0.0
26/05:00pm 29.4 29.6 17.6 49 7.5 NNE 13 19 7 10 1015.3 - 0.0
26/04:30pm 30.1 30.0 17.9 48 7.8 NNE 15 20 8 11 1015.1 - 0.0
26/04:00pm 30.7 30.7 18.1 47 8.1 NNE 15 20 8 11 1015.2 - 0.0
26/03:30pm 31.0 31.5 18.4 47 8.1 N 13 19 7 10 1015.2 - 0.0
26/03:00pm 31.3 31.8 18.3 46 8.4 N 13 22 7 12 1015.3 1015.2 0.0
26/02:30pm 31.4 30.7 17.3 43 9.0 N 17 22 9 12 1015.6 - 0.0
26/02:00pm 32.1 32.7 19.4 47 8.3 N 15 24 8 13 1015.9 - 0.0
26/01:30pm 31.6 31.2 18.9 47 8.3 N 19 24 10 13 1016.3 - 0.0
26/01:00pm 30.8 30.0 17.1 43 8.7 NNE 17 24 9 13 1016.7 - 0.0
26/12:30pm 30.9 31.1 19.3 50 7.6 NNE 17 22 9 12 1017.0 - 0.0
26/12:00pm 30.7 31.0 18.8 49 7.7 N 15 20 8 11 1017.5 1017.4 0.0
26/11:30am 30.6 30.9 19.6 51 7.2 NNE 17 22 9 12 1017.9 - 0.0
26/11:00am 30.7 31.3 20.3 53 6.9 NNW 17 24 9 13 1018.1 - 0.0
26/10:30am 30.5 31.1 19.5 51 7.2 NNE 15 22 8 12 1018.4 - 0.0
26/10:00am 29.5 30.8 20.9 60 5.7 N 15 20 8 11 1018.7 - 0.0
26/09:30am 29.0 30.4 21.0 62 5.3 N 15 20 8 11 1018.7 - 0.0
26/09:00am 28.3 30.0 20.1 61 5.4 N 11 19 6 10 1018.6 1018.5 0.0
26/08:30am 27.5 30.5 22.0 72 3.7 NNE 9 13 5 7 1018.6 - 0.0
26/08:00am 26.3 31.0 22.6 80 2.5 ENE 2 7 1 4 1018.4 - 0.0
26/07:30am 24.8 29.4 22.5 87 1.5 SSE 2 6 1 3 1018.2 - 0.0
26/07:00am 23.5 28.6 22.7 95 0.5 CALM 0 0 0 0 1017.9 - 0.0
26/06:45am 22.7 27.4 22.0 96 0.5 CALM 0 0 0 0 1017.7 - 0.0
26/06:30am 21.5 25.6 20.8 96 0.5 CALM 0 0 0 0 1017.7 - 0.0
26/06:00am 21.4 25.5 20.7 96 0.5 CALM 0 0 0 0 1017.3 1017.2 0.0
26/05:30am 20.8 23.8 20.1 96 0.4 SSE 4 6 2 3 1017.0 - 0.0
26/05:16am 21.2 24.0 20.5 96 0.5 S 6 9 3 5 1016.8 - 0.0
26/05:15am 21.4 24.4 20.9 97 0.3 S 6 9 3 5 1016.8 - 0.0
26/05:00am 21.6 24.5 21.1 97 0.3 SSW 7 11 4 6 1016.8 - 0.0
26/04:46am 21.8 25.0 21.3 97 0.3 SSW 6 7 3 4 1016.6 - 0.0
26/04:30am 21.7 24.3 21.2 97 0.3 SW 9 11 5 6 1016.5 - 0.0
26/04:29am 21.7 24.3 21.2 97 0.3 SW 9 11 5 6 1016.5 - 0.0
26/04:00am 21.1 25.0 20.4 96 0.5 CALM 0 0 0 0 1015.8 - 0.0
26/03:30am 21.8 26.1 21.1 96 0.5 CALM 0 0 0 0 1015.9 - 0.0
26/03:02am 21.3 25.3 20.5 95 0.5 CALM 0 0 0 0 1015.6 - 0.0
26/03:00am 21.6 25.7 20.8 95 0.5 CALM 0 0 0 0 1015.6 1015.5 0.0
26/02:30am 22.0 25.2 21.3 96 0.5 N 6 7 3 4 1015.9 - 0.0
26/02:11am 21.6 24.6 20.8 95 0.5 N 6 7 3 4 1015.9 - 0.0
26/02:00am 21.8 25.7 21.1 96 0.5 N 2 7 1 4 1015.8 - 0.0
26/01:30am 21.8 26.0 21.0 95 0.5 CALM 0 0 0 0 1015.9 - 0.0
26/01:00am 21.4 25.3 20.4 94 0.6 CALM 0 0 0 0 1015.8 - 0.0
26/12:38am 21.8 25.2 21.0 95 0.5 N 4 6 2 3 1016.0 - 0.0
26/12:30am 22.0 25.2 21.2 95 0.5 N 6 7 3 4 1016.1 - 0.0
26/12:27am 22.0 25.2 21.2 95 0.5 N 6 9 3 5 1016.1 - 0.0
26/12:00am 21.9 26.0 20.7 93 0.8 CALM 0 0 0 0 1016.2 1016.1 0.0
 
Date/Time
EST
Temp
°C
App
Temp
°C
Dew
Point
Rel
Hum
%
Delta-T
°C
Wind Press
QNH
hPa
Press
MSL
hPa
Rain
since 9 am
mm
Dir
 
Spd
km/h
Gust
km/h
Spd
kts
Gust
kts
25/11:41pm 22.0 26.1 20.8 93 0.8 CALM 0 0 0 0 1016.4 - 0.0
25/11:30pm 22.3 26.7 21.3 94 0.7 CALM 0 0 0 0 1016.3 - 0.0
25/11:00pm 22.3 26.5 20.9 92 0.9 CALM 0 0 0 0 1016.4 - 0.0
25/10:30pm 22.4 26.6 21.0 92 0.9 CALM 0 0 0 0 1016.5 - 0.0
25/10:00pm 22.8 27.2 21.3 91 1.0 CALM 0 0 0 0 1016.6 - 0.0
25/09:30pm 23.2 27.5 21.1 88 1.4 CALM 0 0 0 0 1016.5 - 0.0
25/09:00pm 23.6 27.2 21.3 87 1.5 N 4 6 2 3 1016.4 1016.3 0.0
25/08:30pm 24.0 27.3 21.5 86 1.7 N 6 7 3 4 1016.2 - 0.0
25/08:00pm 24.1 26.8 21.4 85 1.8 N 9 9 5 5 1015.8 - 0.0
25/07:30pm 24.5 27.6 21.4 83 2.0 N 7 11 4 6 1015.4 - 0.0
25/07:00pm 24.9 27.6 21.4 81 2.3 N 9 11 5 6 1015.1 - 0.0
25/06:30pm 25.6 28.0 21.5 78 2.7 N 11 17 6 9 1014.9 - 0.0
25/06:00pm 26.1 28.0 21.3 75 3.2 N 13 17 7 9 1014.6 1014.5 0.0
25/05:30pm 27.2 28.6 21.0 69 4.1 N 15 22 8 12 1014.2 - 0.0
25/05:00pm 28.2 28.4 20.2 62 5.3 N 19 26 10 14 1014.0 - 0.0
25/04:30pm 29.1 28.9 19.4 55 6.3 NNE 19 28 10 15 1013.6 - 0.0
25/04:00pm 29.8 30.2 20.6 57 6.1 NNE 19 24 10 13 1013.5 - 0.0
25/03:30pm 30.1 30.6 20.9 57 6.1 NNE 19 28 10 15 1013.3 - 0.0
25/03:00pm 31.0 32.3 22.3 60 5.9 NNE 19 28 10 15 1013.3 1013.2 0.0
25/02:30pm 30.9 31.7 21.4 57 6.4 NNE 19 28 10 15 1013.4 - 0.0
25/02:00pm 31.6 32.9 22.3 57 6.3 N 19 26 10 14 1013.6 - 0.0
25/01:30pm 31.7 33.7 23.0 60 6.0 NNE 17 28 9 15 1013.7 - 0.0
25/01:00pm 31.2 32.5 21.7 57 6.4 N 17 28 9 15 1014.0 - 0.0
25/12:30pm 30.7 31.4 21.2 57 6.4 N 19 24 10 13 1014.6 - 0.0
25/12:00pm 31.1 32.4 22.4 60 5.9 N 19 30 10 16 1014.9 1014.8 0.0
25/11:30am 29.8 30.7 20.9 59 5.9 NNE 17 24 9 13 1015.3 - 0.0
25/11:00am 29.7 30.8 20.5 57 6.1 N 15 22 8 12 1015.7 - 0.0
25/10:30am 30.4 32.0 21.5 59 6.0 NNW 15 20 8 11 1016.1 - 0.0
25/10:00am 28.9 30.1 20.6 61 5.5 NNW 15 22 8 12 1016.4 - 0.0
25/09:30am 28.5 28.7 20.5 62 5.3 NNW 20 28 11 15 1016.5 - 0.0
25/09:00am 27.2 28.7 21.2 69 4.0 NNW 15 22 8 12 1016.6 1016.5 0.0
25/08:30am 27.2 29.2 21.5 71 3.8 NNW 13 19 7 10 1016.6 - 0.0
25/08:00am 26.0 29.3 21.9 78 2.7 WNW 7 11 4 6 1016.6 - 0.0
25/07:30am 23.9 27.3 21.6 87 1.5 W 6 9 3 5 1016.1 - 0.0
25/07:00am 22.1 25.6 21.1 94 0.7 SW 4 6 2 3 1015.8 - 0.0
25/06:36am 20.8 23.3 20.3 97 0.3 WSW 7 9 4 5 1015.7 - 0.0
25/06:30am 20.5 23.1 20.0 97 0.3 WSW 6 9 3 5 1015.6 - 0.0
25/06:00am 19.2 22.2 18.5 96 0.4 CALM 0 0 0 0 1015.0 1014.9 0.0
25/05:30am 20.1 23.5 19.4 96 0.4 CALM 0 0 0 0 1015.0 - 0.0
25/05:00am 19.3 21.9 18.5 95 0.5 NE 2 7 1 4 1014.8 - 0.0
25/04:55am 19.6 22.8 18.8 95 0.5 CALM 0 0 0 0 1014.7 - 0.0
25/04:44am 19.1 22.0 18.3 95 0.5 CALM 0 0 0 0 1014.5 - 0.0
25/04:30am 19.2 22.2 18.4 95 0.5 CALM 0 0 0 0 1014.2 - 0.0
25/04:00am 19.8 23.1 19.1 96 0.4 CALM 0 0 0 0 1013.9 - 0.0
25/03:30am 19.7 22.9 18.9 95 0.5 CALM 0 0 0 0 1013.6 - 0.0
25/03:11am 19.8 23.1 19.0 95 0.5 CALM 0 0 0 0 1013.5 - 0.0

Other Formats:

Comma delimited format used in spreadsheet applications
http://www.bom.gov.au/fwo/IDQ60801/IDQ60801.94567.axf

JavaScript Object Notation format (JSON) in row-major order
http://www.bom.gov.au/fwo/IDQ60801/IDQ60801.94567.json